createdAt,value
2019-01-13T00:01:22.954Z,1.20
2019-01-13T00:03:53.808Z,1.27
2019-01-13T00:06:22.364Z,1.47
2019-01-13T00:08:51.142Z,1.80
2019-01-13T00:11:22.765Z,1.50
2019-01-13T00:13:55.080Z,1.23
2019-01-13T00:16:23.906Z,1.53
2019-01-13T00:18:52.609Z,1.30
2019-01-13T00:21:21.425Z,1.40
2019-01-13T00:23:50.070Z,1.40
2019-01-13T00:26:18.767Z,1.40
2019-01-13T00:28:47.427Z,1.53
2019-01-13T00:31:17.785Z,1.07
2019-01-13T00:33:46.406Z,1.30
2019-01-13T00:36:19.468Z,1.60
2019-01-13T00:38:49.557Z,1.70
2019-01-13T00:41:19.867Z,1.80
2019-01-13T00:43:48.862Z,2.77
2019-01-13T00:46:17.557Z,2.20
2019-01-13T00:48:46.116Z,3.00
2019-01-13T00:51:14.867Z,2.93
2019-01-13T00:53:43.570Z,2.70
2019-01-13T00:56:12.277Z,2.73
2019-01-13T00:58:41.459Z,2.70
2019-01-13T01:01:10.022Z,3.13
2019-01-13T01:03:38.867Z,2.70
2019-01-13T01:06:07.805Z,2.67
2019-01-13T01:08:36.583Z,3.30
2019-01-13T01:11:05.681Z,2.50
2019-01-13T01:13:34.421Z,2.50
2019-01-13T01:16:03.314Z,1.97
2019-01-13T01:18:32.011Z,2.77
2019-01-13T01:21:00.741Z,3.43
2019-01-13T01:23:29.378Z,2.60
2019-01-13T01:25:58.080Z,2.30
2019-01-13T01:28:29.814Z,2.60
2019-01-13T01:30:58.445Z,2.93
2019-01-13T01:33:27.193Z,4.03
2019-01-13T01:35:56.696Z,2.93
2019-01-13T01:38:25.470Z,2.70
2019-01-13T01:40:55.824Z,2.20
2019-01-13T01:43:24.555Z,2.20
2019-01-13T01:45:53.111Z,2.03
2019-01-13T01:48:23.218Z,1.90
2019-01-13T01:50:51.922Z,2.00
2019-01-13T01:53:20.547Z,1.90
2019-01-13T01:55:49.269Z,2.90
2019-01-13T01:58:18.065Z,2.50
2019-01-13T02:00:46.770Z,2.43
2019-01-13T02:03:15.462Z,3.13
2019-01-13T02:05:44.193Z,2.53
2019-01-13T02:08:13.114Z,3.73
2019-01-13T02:10:41.797Z,3.87
2019-01-13T02:13:10.792Z,3.33
2019-01-13T02:15:39.424Z,3.20
2019-01-13T02:18:09.503Z,3.73
2019-01-13T02:20:38.238Z,3.00
2019-01-13T02:23:06.953Z,3.60
2019-01-13T02:25:35.664Z,3.73
2019-01-13T02:28:04.468Z,3.17
2019-01-13T02:30:33.166Z,3.33
2019-01-13T02:33:01.861Z,2.87
2019-01-13T02:35:30.467Z,3.37
2019-01-13T02:37:59.168Z,3.60
2019-01-13T02:40:27.806Z,3.03
2019-01-13T02:42:56.462Z,3.20
2019-01-13T02:45:26.965Z,3.53
2019-01-13T02:47:55.684Z,3.67
2019-01-13T02:50:24.414Z,3.80
2019-01-13T02:52:53.118Z,4.33
2019-01-13T02:55:21.822Z,3.80
2019-01-13T02:57:50.565Z,3.17
2019-01-13T03:00:24.463Z,3.33
2019-01-13T03:02:53.340Z,3.40
2019-01-13T03:05:22.176Z,3.77
2019-01-13T03:07:50.871Z,3.03
2019-01-13T03:10:22.073Z,3.70
2019-01-13T03:12:51.240Z,3.33
2019-01-13T03:15:23.243Z,3.60
2019-01-13T03:17:53.705Z,3.47
2019-01-13T03:20:22.737Z,2.90
2019-01-13T03:22:51.549Z,2.80
2019-01-13T03:25:21.456Z,3.13
2019-01-13T03:27:50.192Z,3.17
2019-01-13T03:30:20.791Z,3.07
2019-01-13T03:32:49.436Z,3.57
2019-01-13T03:35:18.890Z,3.43
2019-01-13T03:37:47.593Z,3.63
2019-01-13T03:40:22.193Z,3.87
2019-01-13T03:42:52.497Z,3.73
2019-01-13T03:45:23.298Z,4.67
2019-01-13T03:47:51.856Z,5.17
2019-01-13T03:50:22.315Z,4.50
2019-01-13T03:52:53.486Z,4.07
2019-01-13T03:55:23.091Z,4.80
2019-01-13T03:57:51.826Z,4.20
2019-01-13T04:00:23.546Z,4.10
2019-01-13T04:02:52.287Z,4.07
2019-01-13T04:05:21.114Z,4.10
2019-01-13T04:07:49.819Z,4.70
2019-01-13T04:10:19.108Z,4.13
2019-01-13T04:12:47.865Z,4.50
2019-01-13T04:15:30.658Z,4.80
2019-01-13T04:18:00.715Z,4.17
2019-01-13T04:21:06.582Z,4.63
2019-01-13T04:23:35.315Z,4.87
2019-01-13T04:26:04.025Z,4.70
2019-01-13T04:28:32.663Z,5.60
2019-01-13T04:31:01.261Z,6.03
2019-01-13T04:33:29.812Z,5.30
2019-01-13T04:35:58.643Z,5.43
2019-01-13T04:38:27.373Z,4.87
2019-01-13T04:40:56.102Z,4.50
2019-01-13T04:43:24.728Z,4.30
2019-01-13T04:45:53.393Z,4.70
2019-01-13T04:48:21.957Z,4.37
2019-01-13T04:50:50.521Z,4.60
2019-01-13T04:53:19.225Z,4.83
2019-01-13T04:55:47.860Z,4.13
2019-01-13T04:58:16.567Z,3.43
2019-01-13T05:00:45.296Z,3.40
2019-01-13T05:03:13.881Z,2.60
2019-01-13T05:05:42.590Z,3.10
2019-01-13T05:08:11.272Z,2.57
2019-01-13T05:10:39.902Z,2.50
2019-01-13T05:13:09.005Z,2.10
2019-01-13T05:15:37.762Z,2.53
2019-01-13T05:18:06.402Z,2.17
2019-01-13T05:20:34.964Z,2.07
2019-01-13T05:23:03.650Z,2.23
2019-01-13T05:25:32.314Z,2.50
2019-01-13T05:28:00.937Z,2.37
2019-01-13T05:30:29.738Z,2.77
2019-01-13T05:32:58.368Z,2.90
2019-01-13T05:35:26.987Z,3.50
2019-01-13T05:37:58.391Z,3.57
2019-01-13T05:40:27.084Z,3.80
2019-01-13T05:42:55.758Z,4.30
2019-01-13T05:45:24.550Z,4.73
2019-01-13T05:47:53.187Z,4.87
2019-01-13T05:50:21.813Z,5.30
2019-01-13T05:52:51.127Z,6.03
2019-01-13T05:55:19.830Z,6.00
2019-01-13T05:57:51.690Z,6.27
2019-01-13T06:00:22.893Z,5.67
2019-01-13T06:02:51.599Z,6.57
2019-01-13T06:05:20.368Z,6.50
2019-01-13T06:07:49.038Z,7.27
2019-01-13T06:10:19.169Z,7.33
2019-01-13T06:12:48.046Z,6.83
2019-01-13T06:15:18.977Z,8.23
2019-01-13T06:17:47.683Z,8.30
2019-01-13T06:20:21.498Z,7.27
2019-01-13T06:22:51.743Z,7.53
2019-01-13T06:25:20.483Z,7.20
2019-01-13T06:27:49.147Z,7.23
2019-01-13T06:30:19.878Z,7.83
2019-01-13T06:32:48.787Z,7.70
2019-01-13T06:35:17.487Z,7.60
2019-01-13T06:37:47.656Z,7.77
2019-01-13T06:40:19.170Z,8.67
2019-01-13T06:42:47.859Z,8.77
2019-01-13T06:45:19.010Z,9.07
2019-01-13T06:47:47.572Z,8.07
2019-01-13T06:50:17.360Z,9.43
2019-01-13T06:52:46.201Z,8.47
2019-01-13T06:55:14.909Z,8.90
2019-01-13T06:57:43.606Z,9.13
2019-01-13T07:00:17.915Z,7.83
2019-01-13T07:02:46.628Z,7.17
2019-01-13T07:05:15.324Z,7.40
2019-01-13T07:07:45.630Z,7.47
2019-01-13T07:10:14.531Z,6.97
2019-01-13T07:12:43.249Z,7.17
2019-01-13T07:15:14.080Z,6.57
2019-01-13T07:17:43.442Z,6.63
2019-01-13T07:20:14.500Z,7.20
2019-01-13T07:22:49.758Z,6.97
2019-01-13T07:25:19.694Z,8.17
2019-01-13T07:27:48.358Z,7.07
2019-01-13T07:30:19.563Z,6.53
2019-01-13T07:32:48.237Z,6.97
2019-01-13T07:35:17.098Z,6.30
2019-01-13T07:37:46.030Z,7.13
2019-01-13T07:40:19.025Z,6.60
2019-01-13T07:42:47.928Z,6.87
2019-01-13T07:45:21.465Z,5.93
2019-01-13T07:47:50.114Z,5.80
2019-01-13T07:50:20.220Z,4.90
2019-01-13T07:52:48.942Z,5.17
2019-01-13T07:55:19.465Z,5.00
2019-01-13T07:57:48.462Z,4.90
2019-01-13T08:00:22.388Z,4.30
2019-01-13T08:02:51.140Z,4.20
2019-01-13T08:05:19.804Z,4.10
2019-01-13T08:07:49.713Z,4.30
2019-01-13T08:10:18.271Z,4.87
2019-01-13T08:12:46.968Z,5.23
2019-01-13T08:15:20.405Z,4.17
2019-01-13T08:17:50.665Z,5.00
2019-01-13T08:20:33.517Z,4.70
2019-01-13T08:23:02.414Z,5.70
2019-01-13T08:25:36.829Z,5.07
2019-01-13T08:28:05.563Z,5.23
2019-01-13T08:30:34.265Z,5.93
2019-01-13T08:33:02.977Z,5.47
2019-01-13T08:35:31.657Z,5.47
2019-01-13T08:38:00.288Z,5.07
2019-01-13T08:40:28.993Z,4.80
2019-01-13T08:42:57.739Z,5.20
2019-01-13T08:45:26.435Z,5.40
2019-01-13T08:47:56.613Z,5.37
2019-01-13T08:50:25.849Z,4.97
2019-01-13T08:52:55.122Z,4.60
2019-01-13T08:55:24.294Z,4.77
2019-01-13T08:57:53.433Z,4.53
2019-01-13T09:00:28.082Z,5.03
2019-01-13T09:02:56.795Z,5.03
2019-01-13T09:05:26.059Z,5.50
2019-01-13T09:07:56.234Z,5.43
2019-01-13T09:10:25.359Z,5.73
2019-01-13T09:12:56.920Z,4.73
2019-01-13T09:15:25.853Z,5.03
2019-01-13T09:17:54.786Z,5.50
2019-01-13T09:20:26.942Z,4.20
2019-01-13T09:22:57.255Z,4.87
2019-01-13T09:25:26.297Z,4.90
2019-01-13T09:27:57.981Z,4.80
2019-01-13T09:30:28.388Z,4.40
2019-01-13T09:32:58.890Z,4.40
2019-01-13T09:35:27.574Z,4.83
2019-01-13T09:37:58.997Z,4.87
2019-01-13T09:40:28.931Z,5.03
2019-01-13T09:42:58.553Z,4.20
2019-01-13T09:45:27.327Z,4.07
2019-01-13T09:47:56.070Z,4.57
2019-01-13T09:50:28.439Z,3.03
2019-01-13T09:52:57.215Z,3.80
2019-01-13T09:55:26.335Z,3.07
2019-01-13T09:57:55.224Z,3.03
2019-01-13T10:00:27.313Z,3.10
2019-01-13T10:02:56.799Z,3.20
2019-01-13T10:05:26.043Z,3.47
2019-01-13T10:07:54.756Z,3.20
2019-01-13T10:10:23.665Z,4.10
2019-01-13T10:12:54.471Z,3.80
2019-01-13T10:15:27.091Z,3.70
2019-01-13T10:17:57.837Z,3.73
2019-01-13T10:20:28.646Z,3.70
2019-01-13T10:23:15.203Z,3.43
2019-01-13T10:25:46.244Z,3.73
2019-01-13T10:28:15.366Z,4.03
2019-01-13T10:30:45.081Z,3.63
2019-01-13T10:33:13.822Z,3.70
2019-01-13T10:35:42.536Z,3.37
2019-01-13T10:38:11.231Z,3.53
2019-01-13T10:40:39.961Z,3.40
2019-01-13T10:43:08.668Z,3.07
2019-01-13T10:45:38.529Z,2.60
2019-01-13T10:48:09.146Z,3.00
2019-01-13T10:50:37.852Z,2.60
2019-01-13T10:53:07.048Z,2.30
2019-01-13T10:55:35.811Z,2.50
2019-01-13T10:58:04.626Z,2.30
2019-01-13T11:00:34.438Z,2.50
2019-01-13T11:03:03.176Z,2.27
2019-01-13T11:05:31.871Z,1.90
2019-01-13T11:08:00.583Z,2.10
2019-01-13T11:10:30.866Z,1.70
2019-01-13T11:12:59.579Z,2.00
2019-01-13T11:15:28.212Z,3.40
2019-01-13T11:17:56.899Z,5.00
2019-01-13T11:20:30.970Z,1.60
2019-01-13T11:22:59.779Z,2.80
2019-01-13T11:25:28.541Z,1.40
2019-01-13T11:27:58.066Z,1.10
2019-01-13T11:30:27.706Z,1.13
2019-01-13T11:32:56.437Z,1.60
2019-01-13T11:35:26.775Z,1.10
2019-01-13T11:38:01.274Z,0.80
2019-01-13T11:40:27.515Z,1.10
2019-01-13T11:42:56.834Z,0.60
2019-01-13T11:45:25.761Z,0.90
2019-01-13T11:47:54.690Z,0.70
2019-01-13T11:50:26.925Z,0.90
2019-01-13T11:52:57.080Z,0.70
2019-01-13T11:55:26.425Z,0.70
2019-01-13T11:57:55.116Z,0.80
2019-01-13T12:00:27.009Z,0.90
2019-01-13T12:02:56.135Z,0.90
2019-01-13T12:05:26.654Z,0.80
2019-01-13T12:07:55.743Z,0.73
2019-01-13T12:10:24.669Z,0.73
2019-01-13T12:12:53.385Z,0.90
2019-01-13T12:15:22.682Z,0.83
2019-01-13T12:17:53.363Z,0.93
2019-01-13T12:20:27.891Z,0.80
2019-01-13T12:22:59.698Z,0.90
2019-01-13T12:25:28.410Z,0.90
2019-01-13T12:27:58.264Z,0.80
2019-01-13T12:30:30.337Z,0.70
2019-01-13T12:33:00.073Z,0.80
2019-01-13T12:35:28.799Z,1.00
2019-01-13T12:37:59.734Z,0.77
2019-01-13T12:40:30.574Z,0.70
2019-01-13T12:43:06.928Z,0.90
2019-01-13T12:45:35.565Z,0.60
2019-01-13T12:48:06.057Z,0.60
2019-01-13T12:50:34.868Z,0.60
2019-01-13T12:53:04.918Z,0.60
2019-01-13T12:55:33.615Z,0.60
2019-01-13T12:58:02.341Z,0.83
2019-01-13T13:00:38.265Z,0.63
2019-01-13T13:03:04.343Z,0.50
2019-01-13T13:05:36.341Z,0.50
2019-01-13T13:08:06.782Z,0.50
2019-01-13T13:10:37.674Z,0.50
2019-01-13T13:13:06.413Z,0.40
2019-01-13T13:15:39.316Z,0.50
2019-01-13T13:18:08.261Z,0.40
2019-01-13T13:20:36.974Z,0.70
2019-01-13T13:23:06.580Z,0.90
2019-01-13T13:25:35.330Z,0.47
2019-01-13T13:28:05.621Z,0.50
2019-01-13T13:30:34.312Z,0.50
2019-01-13T13:33:05.077Z,0.60
2019-01-13T13:35:39.959Z,0.60
2019-01-13T13:38:05.477Z,0.50
2019-01-13T13:40:34.214Z,0.60
2019-01-13T13:43:03.224Z,0.57
2019-01-13T13:45:33.422Z,0.57
2019-01-13T13:48:02.186Z,0.70
2019-01-13T13:50:31.151Z,0.60
2019-01-13T13:52:59.863Z,0.60
2019-01-13T13:55:31.564Z,0.40
2019-01-13T13:58:00.288Z,0.50
2019-01-13T14:00:31.306Z,0.50
2019-01-13T14:03:02.597Z,0.40
2019-01-13T14:05:34.479Z,0.43
2019-01-13T14:08:03.687Z,0.50
2019-01-13T14:10:37.599Z,0.40
2019-01-13T14:13:09.187Z,0.43
2019-01-13T14:15:39.582Z,0.63
2019-01-13T14:18:08.529Z,0.47
2019-01-13T14:20:37.173Z,0.50
2019-01-13T14:23:07.336Z,0.60
2019-01-13T14:25:39.374Z,0.60
2019-01-13T14:28:12.375Z,0.47
2019-01-13T14:30:46.548Z,0.63
2019-01-13T14:33:15.253Z,0.70
2019-01-13T14:35:44.167Z,0.60
2019-01-13T14:38:12.920Z,0.50
2019-01-13T14:40:44.454Z,0.50
2019-01-13T14:43:13.185Z,0.63
2019-01-13T14:45:42.029Z,0.47
2019-01-13T14:48:10.812Z,0.50
2019-01-13T14:50:39.824Z,0.50
2019-01-13T14:53:09.374Z,0.60
2019-01-13T14:55:40.693Z,0.70
2019-01-13T14:58:09.405Z,0.60
2019-01-13T15:00:42.123Z,0.60
2019-01-13T15:03:13.606Z,0.50
2019-01-13T15:05:42.313Z,0.40
2019-01-13T15:08:11.413Z,0.60
2019-01-13T15:10:40.063Z,0.60
2019-01-13T15:13:08.771Z,0.50
2019-01-13T15:15:37.522Z,0.50
2019-01-13T15:18:06.403Z,0.90
2019-01-13T15:20:35.103Z,0.50
2019-01-13T15:23:04.345Z,0.50
2019-01-13T15:25:37.287Z,0.50
2019-01-13T15:28:05.966Z,0.43
2019-01-13T15:30:35.625Z,0.70
2019-01-13T15:33:04.728Z,0.93
2019-01-13T15:35:35.083Z,0.40
2019-01-13T15:38:05.833Z,0.67
2019-01-13T15:40:34.542Z,0.60
2019-01-13T15:43:03.264Z,0.53
2019-01-13T15:45:32.021Z,0.50
2019-01-13T15:48:00.658Z,0.70
2019-01-13T15:50:30.061Z,0.83
2019-01-13T15:53:05.924Z,0.57
2019-01-13T15:55:34.637Z,0.70
2019-01-13T15:58:03.333Z,0.87
2019-01-13T16:00:35.004Z,0.90
2019-01-13T16:03:04.307Z,0.67
2019-01-13T16:05:32.945Z,0.90
2019-01-13T16:08:01.698Z,0.90
2019-01-13T16:10:30.403Z,0.70
2019-01-13T16:12:59.106Z,0.90
2019-01-13T16:15:33.949Z,0.80
2019-01-13T16:17:59.830Z,0.63
2019-01-13T16:20:44.281Z,0.87
2019-01-13T16:23:05.572Z,0.93
2019-01-13T16:25:34.261Z,0.77
2019-01-13T16:28:06.672Z,0.73
2019-01-13T16:30:35.667Z,0.67
2019-01-13T16:33:04.374Z,0.70
2019-01-13T16:35:37.217Z,0.60
2019-01-13T16:38:06.853Z,0.60
2019-01-13T16:40:38.233Z,0.60
2019-01-13T16:43:07.273Z,0.50
2019-01-13T16:45:36.182Z,0.50
2019-01-13T16:48:08.181Z,0.70
2019-01-13T16:50:36.868Z,0.60
2019-01-13T16:53:06.244Z,0.80
2019-01-13T16:55:34.903Z,0.43
2019-01-13T16:58:04.153Z,0.60
2019-01-13T17:00:33.262Z,0.60
2019-01-13T17:03:06.977Z,0.57
2019-01-13T17:05:40.299Z,0.50
2019-01-13T17:08:10.607Z,0.90
2019-01-13T17:10:45.256Z,0.80
2019-01-13T17:13:14.101Z,0.80
2019-01-13T17:15:42.747Z,0.97
2019-01-13T17:18:11.465Z,0.93
2019-01-13T17:20:58.151Z,1.20
2019-01-13T17:23:26.893Z,0.70
2019-01-13T17:25:55.519Z,0.70
2019-01-13T17:28:31.611Z,1.00
2019-01-13T17:31:04.570Z,0.80
2019-01-13T17:33:38.873Z,0.80
2019-01-13T17:36:09.187Z,0.80
2019-01-13T17:38:43.096Z,0.70
2019-01-13T17:41:11.713Z,1.13
2019-01-13T17:43:42.181Z,1.00
2019-01-13T17:46:23.241Z,1.40
2019-01-13T17:48:53.437Z,1.17
2019-01-13T17:51:22.154Z,1.23
2019-01-13T17:53:50.857Z,1.27
2019-01-13T17:56:19.615Z,0.90
2019-01-13T17:58:48.261Z,0.90
2019-01-13T18:01:20.698Z,0.90
2019-01-13T18:03:49.494Z,1.10
2019-01-13T18:06:19.427Z,1.30
2019-01-13T18:08:50.824Z,3.27
2019-01-13T18:11:19.757Z,1.43
2019-01-13T18:13:48.414Z,1.73
2019-01-13T18:16:21.594Z,2.13
2019-01-13T18:18:50.375Z,1.70
2019-01-13T18:21:19.861Z,2.07
2019-01-13T18:23:49.824Z,1.70
2019-01-13T18:26:22.785Z,3.23
2019-01-13T18:28:55.642Z,2.23
2019-01-13T18:31:27.851Z,0.50
2019-01-13T18:33:57.049Z,0.53
2019-01-13T18:36:28.718Z,0.60
2019-01-13T18:38:57.382Z,1.10
2019-01-13T18:41:29.699Z,0.67
2019-01-13T18:43:59.818Z,0.83
2019-01-13T18:46:30.195Z,0.93
2019-01-13T18:48:58.815Z,0.90
2019-01-13T18:51:27.515Z,0.80
2019-01-13T18:54:00.909Z,1.00
2019-01-13T18:56:29.673Z,0.83
2019-01-13T18:59:00.465Z,1.37
2019-01-13T19:01:31.910Z,0.73
2019-01-13T19:04:03.727Z,0.80
2019-01-13T19:06:35.659Z,0.90
2019-01-13T19:09:08.580Z,1.30
2019-01-13T19:11:38.047Z,1.20
2019-01-13T19:14:13.859Z,0.83
2019-01-13T19:16:47.962Z,1.07
2019-01-13T19:19:16.854Z,1.07
2019-01-13T19:21:50.587Z,0.87
2019-01-13T19:24:21.971Z,1.20
2019-01-13T19:26:50.584Z,0.80
2019-01-13T19:29:27.753Z,1.33
2019-01-13T19:31:56.452Z,1.10
2019-01-13T19:34:29.394Z,0.97
2019-01-13T19:37:04.216Z,0.90
2019-01-13T19:39:40.030Z,0.90
2019-01-13T19:42:10.229Z,1.30
2019-01-13T19:44:39.043Z,1.20
2019-01-13T19:47:11.023Z,1.10
2019-01-13T19:49:47.187Z,1.30
2019-01-13T19:52:17.851Z,1.10
2019-01-13T19:54:50.681Z,1.20
2019-01-13T19:57:25.025Z,0.80
2019-01-13T19:59:53.842Z,1.17
2019-01-13T20:02:22.831Z,1.30
2019-01-13T20:04:53.366Z,0.87
2019-01-13T20:07:24.688Z,1.10
2019-01-13T20:09:57.870Z,0.80
2019-01-13T20:12:33.964Z,0.90
2019-01-13T20:15:03.894Z,0.97
2019-01-13T20:17:32.622Z,1.10
2019-01-13T20:20:04.014Z,1.10
2019-01-13T20:22:35.585Z,1.07
2019-01-13T20:25:08.751Z,1.50
2019-01-13T20:27:37.460Z,1.30
2019-01-13T20:30:13.673Z,1.07
2019-01-13T20:32:47.405Z,1.60
2019-01-13T20:35:21.819Z,2.17
2019-01-13T20:37:50.564Z,1.93
2019-01-13T20:40:19.659Z,1.23
2019-01-13T20:42:48.405Z,1.53
2019-01-13T20:45:26.419Z,1.33
2019-01-13T20:48:01.509Z,1.40
2019-01-13T20:50:30.242Z,1.20
2019-01-13T20:52:58.898Z,1.40
2019-01-13T20:55:27.646Z,1.73
2019-01-13T20:57:56.340Z,1.10
2019-01-13T21:00:26.668Z,1.50
2019-01-13T21:02:56.623Z,1.10
2019-01-13T21:05:27.594Z,1.20
2019-01-13T21:07:56.423Z,1.40
2019-01-13T21:10:27.637Z,1.10
2019-01-13T21:12:56.422Z,0.90
2019-01-13T21:15:33.723Z,1.30
2019-01-13T21:18:02.378Z,1.20
2019-01-13T21:20:34.281Z,1.10
2019-01-13T21:23:03.609Z,0.90
2019-01-13T21:25:33.943Z,1.00
2019-01-13T21:28:03.581Z,0.60
2019-01-13T21:30:35.411Z,1.00
2019-01-13T21:33:06.818Z,1.00
2019-01-13T21:35:35.715Z,0.87
2019-01-13T21:38:04.942Z,1.00
2019-01-13T21:40:33.954Z,1.20
2019-01-13T21:43:02.963Z,0.90
2019-01-13T21:45:31.694Z,1.20
2019-01-13T21:48:00.542Z,1.00
2019-01-13T21:50:29.436Z,3.17
2019-01-13T21:52:58.196Z,0.90
2019-01-13T21:55:28.379Z,1.30
2019-01-13T21:58:01.522Z,1.10
2019-01-13T22:00:28.921Z,1.00
2019-01-13T22:02:59.606Z,1.77
2019-01-13T22:05:29.877Z,1.23
2019-01-13T22:07:58.548Z,0.93
2019-01-13T22:10:28.054Z,0.70
2019-01-13T22:13:07.570Z,0.90
2019-01-13T22:15:39.446Z,1.60
2019-01-13T22:18:11.008Z,1.10
2019-01-13T22:20:39.706Z,1.37
2019-01-13T22:23:11.433Z,1.30
2019-01-13T22:25:40.332Z,1.23
2019-01-13T22:28:09.120Z,1.43
2019-01-13T22:30:42.274Z,1.50
2019-01-13T22:33:11.163Z,1.83
2019-01-13T22:35:40.264Z,1.33
2019-01-13T22:38:10.444Z,2.60
2019-01-13T22:40:39.215Z,1.40
2019-01-13T22:43:07.934Z,1.13
2019-01-13T22:45:36.629Z,1.40
2019-01-13T22:48:09.557Z,1.27
2019-01-13T22:50:38.199Z,1.90
2019-01-13T22:53:06.911Z,1.60
2019-01-13T22:55:35.637Z,1.70
2019-01-13T22:58:04.368Z,1.57
2019-01-13T23:00:49.318Z,1.70
2019-01-13T23:03:18.751Z,1.80
2019-01-13T23:05:47.491Z,1.67
2019-01-13T23:08:16.134Z,1.20
2019-01-13T23:10:44.841Z,1.67
2019-01-13T23:13:13.663Z,1.30
2019-01-13T23:15:42.427Z,1.17
2019-01-13T23:18:13.808Z,2.10
2019-01-13T23:20:44.725Z,1.27
2019-01-13T23:23:15.668Z,1.40
2019-01-13T23:25:44.377Z,1.80
2019-01-13T23:28:13.278Z,1.30
2019-01-13T23:30:42.020Z,1.10
2019-01-13T23:33:10.970Z,1.27
2019-01-13T23:35:39.670Z,1.70
2019-01-13T23:38:08.401Z,1.37
2019-01-13T23:40:37.100Z,2.20
2019-01-13T23:43:05.812Z,1.80
2019-01-13T23:45:34.619Z,1.50
2019-01-13T23:48:03.314Z,1.40
2019-01-13T23:50:32.013Z,1.30
2019-01-13T23:53:00.755Z,1.03
2019-01-13T23:55:29.609Z,0.97
2019-01-13T23:57:58.279Z,1.13
